Time;durP1;ratioP1;P1;durP2;ratioP2;P2;SDS_P1;SDS_P2;PMS_P1;PMS_P2;Temp;Humidity;BMP_temperature;BMP_pressure;BME280_temperature;BME280_humidity;BME280_pressure;Samples;Min_cycle;Max_cycle;Signal;HPM_P1;HPM_P2
2020/12/27 00:00:18;;;;;;;36.78;10.20;;;7.30;99.90;;;;;;4966340;28;20505;-68
2020/12/27 00:02:44;;;;;;;35.30;10.57;;;7.30;99.90;;;;;;4965081;28;20659;-68
2020/12/27 00:05:10;;;;;;;57.38;12.20;;;7.30;99.90;;;;;;4963900;28;20483;-68
2020/12/27 00:07:36;;;;;;;38.75;10.57;;;7.40;99.90;;;;;;4964910;28;20038;-67
2020/12/27 00:10:06;;;;;;;26.77;9.73;;;7.40;99.90;;;;;;4965655;28;20180;-67
2020/12/27 00:12:32;;;;;;;30.58;9.43;;;7.30;99.90;;;;;;4966315;28;20027;-67
2020/12/27 00:14:58;;;;;;;35.75;10.25;;;7.40;99.90;;;;;;4962411;28;20587;-68
2020/12/27 00:17:24;;;;;;;48.08;10.77;;;7.40;99.90;;;;;;4967616;28;20112;-67
2020/12/27 00:19:49;;;;;;;34.38;9.50;;;7.40;99.90;;;;;;4965430;28;20023;-68
2020/12/27 00:22:16;;;;;;;35.83;10.10;;;7.30;99.90;;;;;;4967157;28;20045;-68
2020/12/27 00:24:42;;;;;;;37.58;10.70;;;7.40;99.90;;;;;;4963948;28;20118;-67
2020/12/27 00:27:07;;;;;;;29.13;9.93;;;7.40;99.90;;;;;;4963976;28;20045;-68
2020/12/27 00:29:33;;;;;;;25.45;8.70;;;7.40;99.90;;;;;;4964334;28;20030;-68
2020/12/27 00:31:59;;;;;;;37.55;8.98;;;7.40;99.90;;;;;;4967902;28;20117;-67
2020/12/27 00:34:25;;;;;;;35.60;11.20;;;7.40;99.90;;;;;;4962806;28;20080;-68
2020/12/27 00:36:59;;;;;;;32.55;11.02;;;7.30;99.90;;;;;;4963685;28;20494;-68
2020/12/27 00:39:26;;;;;;;26.90;9.68;;;7.30;99.90;;;;;;4964869;28;20043;-68
2020/12/27 00:41:57;;;;;;;33.03;9.95;;;7.30;99.90;;;;;;4964824;28;20640;-68
2020/12/27 00:44:22;;;;;;;39.22;13.73;;;7.30;99.90;;;;;;4963272;28;20034;-68
2020/12/27 00:46:51;;;;;;;33.92;11.85;;;7.30;99.90;;;;;;4963152;28;20053;-68
2020/12/27 00:49:18;;;;;;;38.57;11.30;;;7.30;99.90;;;;;;4962024;28;20792;-68
2020/12/27 00:51:45;;;;;;;39.45;12.32;;;7.30;99.90;;;;;;4963152;28;20117;-67
2020/12/27 00:54:11;;;;;;;42.35;11.38;;;7.30;99.90;;;;;;4962768;28;20054;-67
2020/12/27 00:56:37;;;;;;;41.03;12.25;;;7.30;99.90;;;;;;4963984;28;20565;-67
2020/12/27 00:59:04;;;;;;;25.80;9.23;;;7.30;99.90;;;;;;4964983;28;20035;-68
2020/12/27 01:01:29;;;;;;;35.70;9.07;;;7.30;99.90;;;;;;4964270;28;20443;-67
2020/12/27 01:03:55;;;;;;;32.20;9.52;;;7.30;99.90;;;;;;4963025;28;20358;-67
2020/12/27 01:06:23;;;;;;;27.15;8.57;;;7.30;99.90;;;;;;4962113;28;20046;-67
2020/12/27 01:08:48;;;;;;;26.45;7.93;;;7.30;99.90;;;;;;4966272;28;20039;-66
2020/12/27 01:11:14;;;;;;;60.47;12.93;;;7.30;99.90;;;;;;4968548;28;20092;-68
2020/12/27 01:13:40;;;;;;;30.85;10.30;;;7.30;99.90;;;;;;4968119;28;20501;-67
2020/12/27 01:16:14;;;;;;;33.53;9.55;;;7.30;99.90;;;;;;4965351;28;20565;-67
2020/12/27 01:18:42;;;;;;;41.25;9.95;;;7.30;99.90;;;;;;4967226;28;20122;-67
2020/12/27 01:21:08;;;;;;;39.45;11.00;;;7.30;99.90;;;;;;4965741;28;20056;-67
2020/12/27 01:23:34;;;;;;;29.70;10.23;;;7.30;99.90;;;;;;4966188;28;20030;-67
2020/12/27 01:25:59;;;;;;;30.67;10.38;;;7.20;99.90;;;;;;4968285;28;20874;-68
2020/12/27 01:28:25;;;;;;;35.65;10.07;;;7.20;99.90;;;;;;4964181;28;20034;-67
2020/12/27 01:30:51;;;;;;;35.67;12.07;;;7.20;99.90;;;;;;4970005;28;20039;-67
2020/12/27 01:33:17;;;;;;;30.33;9.88;;;7.20;99.90;;;;;;4967277;28;20031;-67
2020/12/27 01:35:46;;;;;;;32.72;10.07;;;7.10;99.90;;;;;;4970032;28;20033;-67
2020/12/27 01:38:13;;;;;;;44.25;11.90;;;7.10;99.90;;;;;;4966025;28;20082;-67
2020/12/27 01:40:39;;;;;;;43.28;10.65;;;7.10;99.90;;;;;;4970289;28;20062;-67
2020/12/27 01:43:06;;;;;;;29.48;10.57;;;7.10;99.90;;;;;;4965172;28;20062;-67
2020/12/27 01:45:32;;;;;;;29.92;9.18;;;7.10;99.90;;;;;;4968340;28;20149;-67
2020/12/27 01:47:58;;;;;;;26.83;8.55;;;7.10;99.90;;;;;;4967259;28;20042;-67
2020/12/27 01:50:24;;;;;;;27.92;8.77;;;7.10;99.90;;;;;;4968141;28;20525;-68
2020/12/27 01:52:50;;;;;;;27.95;8.90;;;7.00;99.90;;;;;;4968152;28;20541;-67
2020/12/27 01:55:17;;;;;;;26.77;8.77;;;7.00;99.90;;;;;;4965248;28;20033;-68
2020/12/27 01:58:09;;;;;;;31.48;9.43;;;7.00;99.90;;;;;;4968448;28;20459;-67
2020/12/27 02:00:35;;;;;;;28.63;7.82;;;6.90;99.90;;;;;;4961094;28;20047;-68
2020/12/27 02:03:01;;;;;;;39.30;10.98;;;6.90;99.90;;;;;;4968454;28;20655;-68
2020/12/27 02:05:26;;;;;;;25.92;6.65;;;6.90;99.90;;;;;;4963087;28;20050;-68
2020/12/27 02:07:53;;;;;;;25.77;5.78;;;6.90;99.90;;;;;;4966429;28;20202;-68
2020/12/27 02:10:19;;;;;;;23.83;7.72;;;6.80;99.90;;;;;;4968952;28;20035;-67
2020/12/27 02:12:45;;;;;;;21.48;7.22;;;6.80;99.90;;;;;;4968712;28;20023;-67
2020/12/27 02:15:10;;;;;;;19.48;6.57;;;6.80;99.90;;;;;;4965656;28;20041;-66
2020/12/27 02:17:36;;;;;;;23.63;7.80;;;6.80;99.90;;;;;;4965520;28;20515;-67
2020/12/27 02:20:05;;;;;;;26.08;7.85;;;6.70;99.90;;;;;;4968246;28;20145;-68
2020/12/27 02:22:30;;;;;;;20.08;6.72;;;6.70;99.90;;;;;;4968768;28;20699;-68
2020/12/27 02:24:56;;;;;;;21.63;8.30;;;6.70;99.90;;;;;;4965585;28;20039;-68
2020/12/27 02:27:22;;;;;;;27.95;7.15;;;6.70;99.90;;;;;;4967866;28;20410;-67
2020/12/27 02:29:48;;;;;;;23.10;7.22;;;6.70;99.90;;;;;;4968472;28;20128;-68
2020/12/27 02:32:13;;;;;;;23.83;6.70;;;6.70;99.90;;;;;;4968751;28;20037;-68
2020/12/27 02:34:39;;;;;;;22.25;6.35;;;6.70;99.90;;;;;;4979104;28;20080;-68
2020/12/27 02:37:05;;;;;;;23.38;7.82;;;6.70;99.90;;;;;;4968283;28;20486;-68
2020/12/27 02:39:31;;;;;;;22.70;6.90;;;6.60;99.90;;;;;;4969102;28;20058;-68
2020/12/27 02:41:56;;;;;;;24.63;6.65;;;6.60;99.90;;;;;;4965989;28;20661;-68
2020/12/27 02:44:22;;;;;;;27.23;6.60;;;6.60;99.90;;;;;;4964710;28;20042;-68
2020/12/27 02:46:48;;;;;;;17.10;6.13;;;6.60;99.90;;;;;;4966656;28;20050;-68
2020/12/27 02:49:14;;;;;;;24.52;6.72;;;6.60;99.90;;;;;;4960705;28;20114;-68
2020/12/27 02:51:39;;;;;;;19.40;5.90;;;6.60;99.90;;;;;;4966230;28;20045;-68
2020/12/27 02:54:05;;;;;;;18.88;6.43;;;6.50;99.90;;;;;;4961154;28;21193;-68
2020/12/27 02:56:31;;;;;;;19.65;7.22;;;6.50;99.90;;;;;;4965727;28;20473;-68
2020/12/27 02:59:02;;;;;;;27.48;7.35;;;6.50;99.90;;;;;;4964836;28;20062;-69
2020/12/27 03:01:27;;;;;;;19.70;6.63;;;6.50;99.90;;;;;;4962559;28;20391;-68
2020/12/27 03:03:53;;;;;;;14.55;5.63;;;6.50;99.90;;;;;;4964090;28;20026;-68
2020/12/27 03:06:19;;;;;;;22.20;7.50;;;6.40;99.90;;;;;;4965171;28;20121;-68
2020/12/27 03:08:54;;;;;;;28.88;8.75;;;6.40;99.90;;;;;;4967226;28;20039;-68
2020/12/27 03:11:21;;;;;;;23.98;6.70;;;6.40;99.90;;;;;;4967991;28;20122;-68
2020/12/27 03:13:47;;;;;;;19.38;6.22;;;6.40;99.90;;;;;;4965080;28;20036;-68
2020/12/27 03:16:19;;;;;;;24.73;7.28;;;6.40;99.90;;;;;;4965627;28;20497;-68
2020/12/27 03:18:45;;;;;;;20.05;8.15;;;6.40;99.90;;;;;;4966609;28;20023;-67
2020/12/27 03:21:10;;;;;;;21.88;9.63;;;6.50;99.90;;;;;;4964520;28;20038;-68
2020/12/27 03:23:36;;;;;;;21.27;7.50;;;6.50;99.90;;;;;;4964911;28;20026;-68
2020/12/27 03:26:03;;;;;;;26.00;7.53;;;6.50;99.90;;;;;;4964423;28;20495;-68
2020/12/27 03:28:28;;;;;;;30.23;9.52;;;6.60;99.90;;;;;;4962961;28;20038;-68
2020/12/27 03:30:54;;;;;;;25.63;8.52;;;6.60;99.90;;;;;;4965739;28;20801;-68
2020/12/27 03:33:20;;;;;;;29.50;9.23;;;6.60;99.90;;;;;;4966028;28;20349;-68
2020/12/27 03:35:46;;;;;;;21.90;7.05;;;6.60;99.90;;;;;;4967063;28;20061;-68
2020/12/27 03:38:12;;;;;;;23.80;9.88;;;6.60;99.90;;;;;;4965202;28;20065;-68
2020/12/27 03:40:38;;;;;;;31.88;9.23;;;6.60;99.90;;;;;;4966103;28;20073;-67
2020/12/27 03:43:04;;;;;;;24.00;8.82;;;6.60;99.90;;;;;;4963159;28;20261;-68
2020/12/27 03:45:30;;;;;;;33.88;10.27;;;6.60;99.90;;;;;;4966022;28;20133;-69
2020/12/27 03:47:55;;;;;;;27.10;8.82;;;6.60;99.90;;;;;;4965130;28;20155;-68
2020/12/27 03:50:22;;;;;;;29.05;10.65;;;6.60;99.90;;;;;;4963682;28;20034;-68
2020/12/27 03:52:48;;;;;;;25.58;9.48;;;6.60;99.90;;;;;;4963896;28;20026;-68
2020/12/27 03:55:15;;;;;;;25.45;9.57;;;6.60;99.90;;;;;;4964373;28;20042;-68
2020/12/27 03:57:40;;;;;;;29.25;9.85;;;6.50;99.90;;;;;;4964350;28;20578;-68
2020/12/27 04:00:06;;;;;;;24.13;9.85;;;6.50;99.90;;;;;;4964821;28;20315;-68
2020/12/27 04:02:32;;;;;;;29.45;9.00;;;6.50;99.90;;;;;;4961815;28;20038;-68
2020/12/27 04:04:58;;;;;;;23.58;7.55;;;6.50;99.90;;;;;;4960041;28;20069;-69
2020/12/27 04:07:24;;;;;;;23.10;7.88;;;6.40;99.90;;;;;;4964619;28;20031;-68
2020/12/27 04:09:50;;;;;;;22.25;8.68;;;6.40;99.90;;;;;;4962951;28;20073;-69
2020/12/27 04:12:15;;;;;;;17.23;8.43;;;6.40;99.90;;;;;;4966372;28;20039;-69
2020/12/27 04:14:41;;;;;;;21.40;8.57;;;6.40;99.90;;;;;;4963024;28;20034;-68
2020/12/27 04:17:07;;;;;;;22.70;8.73;;;6.30;99.90;;;;;;4965087;28;20042;-69
2020/12/27 04:19:33;;;;;;;25.92;8.27;;;6.30;99.90;;;;;;4964855;28;20125;-69
2020/12/27 04:21:59;;;;;;;21.83;7.65;;;6.30;99.90;;;;;;4965178;28;20512;-69
2020/12/27 04:24:24;;;;;;;23.67;8.90;;;6.20;99.90;;;;;;4964732;28;20089;-69
2020/12/27 04:26:50;;;;;;;26.80;8.15;;;6.20;99.90;;;;;;4968360;28;20101;-69
2020/12/27 04:29:16;;;;;;;24.13;8.10;;;6.20;99.90;;;;;;4965588;28;20041;-70
2020/12/27 04:31:42;;;;;;;21.35;7.75;;;6.20;99.90;;;;;;4968510;28;20109;-69
2020/12/27 04:34:08;;;;;;;28.23;10.27;;;6.20;99.90;;;;;;4963977;28;20042;-69
2020/12/27 04:36:34;;;;;;;36.85;9.43;;;6.10;99.90;;;;;;4966297;28;20148;-69
2020/12/27 04:38:59;;;;;;;26.80;8.98;;;6.20;99.90;;;;;;4963992;28;20560;-69
2020/12/27 04:41:25;;;;;;;29.38;9.85;;;6.10;99.90;;;;;;4966797;28;20073;-70
2020/12/27 04:43:51;;;;;;;24.40;9.40;;;6.10;99.90;;;;;;4968730;28;20026;-70
2020/12/27 04:46:17;;;;;;;32.50;8.88;;;6.10;99.90;;;;;;4969626;28;20387;-69
2020/12/27 04:48:44;;;;;;;33.92;7.72;;;6.20;99.90;;;;;;4966465;28;20031;-69
2020/12/27 04:51:12;;;;;;;19.33;6.65;;;6.20;99.90;;;;;;4970245;28;20039;-70
2020/12/27 04:53:39;;;;;;;29.33;8.68;;;6.10;99.90;;;;;;4965815;28;20042;-69
2020/12/27 04:56:06;;;;;;;31.67;8.05;;;6.10;99.90;;;;;;4968866;28;20034;-70
2020/12/27 04:58:32;;;;;;;37.47;7.65;;;6.10;99.90;;;;;;4969448;28;20034;-69
2020/12/27 05:01:00;;;;;;;19.98;6.85;;;6.10;99.90;;;;;;4969217;28;20046;-70
2020/12/27 05:03:26;;;;;;;23.30;7.65;;;6.10;99.90;;;;;;4966504;28;20089;-70
2020/12/27 05:05:53;;;;;;;22.98;6.78;;;6.10;99.90;;;;;;4970271;28;20042;-70
2020/12/27 05:08:20;;;;;;;26.45;7.95;;;6.10;99.90;;;;;;4967792;28;20070;-70
2020/12/27 05:10:47;;;;;;;13.57;4.82;;;6.10;99.90;;;;;;4971294;28;20505;-70
2020/12/27 05:13:14;;;;;;;28.42;7.35;;;6.00;99.90;;;;;;4967072;28;20074;-70
2020/12/27 05:15:41;;;;;;;21.45;6.28;;;6.10;99.90;;;;;;4968579;28;20078;-70
2020/12/27 05:18:08;;;;;;;15.65;5.13;;;6.10;99.90;;;;;;4966594;28;20070;-70
2020/12/27 05:20:41;;;;;;;22.88;6.97;;;6.00;99.90;;;;;;4970304;28;20027;-71
2020/12/27 05:23:08;;;;;;;15.98;6.28;;;6.00;99.90;;;;;;4966471;28;20034;-70
2020/12/27 05:25:37;;;;;;;11.30;4.80;;;6.00;99.90;;;;;;4996245;28;20046;-70
2020/12/27 05:28:10;;;;;;;22.05;5.50;;;6.00;99.90;;;;;;4970940;28;20026;-71
2020/12/27 05:30:43;;;;;;;19.23;5.72;;;6.00;99.90;;;;;;4969333;28;20046;-70
2020/12/27 05:33:14;;;;;;;19.00;5.78;;;6.00;99.90;;;;;;4967556;28;20046;-70
2020/12/27 05:35:41;;;;;;;22.95;5.90;;;5.90;99.90;;;;;;4968624;28;20074;-71
2020/12/27 05:38:08;;;;;;;13.95;4.35;;;5.90;99.90;;;;;;4967506;28;20700;-71
2020/12/27 05:40:39;;;;;;;13.38;4.22;;;5.90;99.90;;;;;;4969124;28;20503;-71
2020/12/27 05:43:15;;;;;;;22.35;4.47;;;5.80;99.90;;;;;;4966360;28;20117;-71
2020/12/27 05:45:43;;;;;;;16.42;4.70;;;5.80;99.90;;;;;;4969783;28;20038;-71
2020/12/27 05:48:09;;;;;;;16.30;3.20;;;5.80;99.90;;;;;;4967780;28;20150;-71
2020/12/27 05:50:38;;;;;;;14.60;3.53;;;5.80;99.90;;;;;;4967095;28;20037;-70
2020/12/27 05:53:09;;;;;;;13.13;3.40;;;5.80;99.90;;;;;;4967013;28;20424;-71
2020/12/27 05:55:39;;;;;;;16.92;4.82;;;5.70;99.90;;;;;;4966615;28;22108;-71
2020/12/27 05:58:10;;;;;;;16.40;5.38;;;5.70;99.90;;;;;;4962880;28;20029;-71
2020/12/27 06:00:37;;;;;;;16.08;3.60;;;5.70;99.90;;;;;;4968116;28;20033;-71
2020/12/27 06:03:03;;;;;;;21.27;4.30;;;5.70;99.90;;;;;;4967437;28;20027;-71
2020/12/27 06:05:53;;;;;;;8.65;2.45;;;5.60;99.90;;;;;;4967263;28;20136;-71
2020/12/27 06:08:28;;;;;;;12.68;3.60;;;5.60;99.90;;;;;;4962712;28;20710;-71
2020/12/27 06:10:59;;;;;;;18.00;4.20;;;5.60;99.90;;;;;;4968862;28;20400;-71
2020/12/27 06:13:43;;;;;;;10.90;2.72;;;5.60;99.90;;;;;;4964456;28;20023;-71
2020/12/27 06:16:13;;;;;;;15.18;2.97;;;5.50;99.90;;;;;;4996614;28;20117;-72
2020/12/27 06:18:40;;;;;;;9.70;2.70;;;5.50;99.90;;;;;;4966404;28;20501;-71
2020/12/27 06:21:08;;;;;;;11.60;3.88;;;5.40;99.90;;;;;;4962353;28;20054;-72
2020/12/27 06:23:35;;;;;;;12.68;2.90;;;5.40;99.90;;;;;;4960850;28;20046;-71
2020/12/27 06:26:02;;;;;;;12.93;2.78;;;5.40;99.90;;;;;;4966436;28;20151;-72
2020/12/27 06:28:29;;;;;;;10.23;3.75;;;5.40;99.90;;;;;;4966768;28;20359;-72
2020/12/27 06:30:58;;;;;;;15.18;4.53;;;5.30;99.90;;;;;;4968499;28;20088;-72
2020/12/27 06:33:28;;;;;;;8.30;3.85;;;5.30;99.90;;;;;;4962123;28;20688;-71
2020/12/27 06:35:54;;;;;;;14.20;5.35;;;5.30;99.90;;;;;;4964488;28;20064;-71
2020/12/27 06:38:22;;;;;;;23.35;7.50;;;5.20;99.90;;;;;;4968630;28;20090;-71
2020/12/27 06:41:04;;;;;;;12.73;4.90;;;5.20;99.90;;;;;;4962055;28;20048;-71
2020/12/27 06:43:45;;;;;;;18.90;6.07;;;5.20;99.90;;;;;;4958286;28;20439;-71
2020/12/27 06:46:28;;;;;;;11.00;5.68;;;5.10;99.90;;;;;;4965906;28;20857;-71
2020/12/27 06:49:14;;;;;;;10.30;4.65;;;5.00;99.90;;;;;;4963099;28;20058;-71
2020/12/27 06:51:42;;;;;;;12.48;5.35;;;5.00;99.90;;;;;;4962243;28;20026;-71
2020/12/27 06:54:09;;;;;;;9.80;5.40;;;5.00;99.90;;;;;;4962677;28;20565;-71
2020/12/27 06:56:40;;;;;;;16.35;5.43;;;4.90;99.90;;;;;;4963161;28;20153;-72
2020/12/27 06:59:06;;;;;;;15.93;5.68;;;4.90;99.90;;;;;;4960890;28;20320;-71
2020/12/27 07:01:33;;;;;;;16.40;7.32;;;4.80;99.90;;;;;;4962728;28;20445;-72
2020/12/27 07:04:12;;;;;;;13.38;5.45;;;4.80;99.90;;;;;;4962161;28;20444;-72
2020/12/27 07:06:40;;;;;;;17.50;6.72;;;4.90;99.90;;;;;;4960326;28;20061;-72
2020/12/27 07:09:06;;;;;;;10.85;5.25;;;4.80;99.90;;;;;;4962859;28;20038;-71
2020/12/27 07:11:33;;;;;;;16.85;7.80;;;4.80;99.90;;;;;;4959731;28;20042;-72
2020/12/27 07:14:00;;;;;;;14.38;5.60;;;4.80;99.90;;;;;;4956732;28;20034;-72
2020/12/27 07:16:48;;;;;;;13.65;5.35;;;4.70;99.90;;;;;;4966149;28;20224;-72
2020/12/27 07:19:15;;;;;;;16.20;5.53;;;4.70;99.90;;;;;;4965081;28;20485;-72
2020/12/27 07:21:44;;;;;;;17.58;5.72;;;4.70;99.90;;;;;;4967857;28;20154;-72
2020/12/27 07:24:11;;;;;;;21.67;5.85;;;4.70;99.90;;;;;;4965412;28;20034;-72
2020/12/27 07:26:43;;;;;;;15.98;5.80;;;4.70;99.90;;;;;;4967671;28;20030;-72
2020/12/27 07:29:11;;;;;;;18.98;5.45;;;4.70;99.90;;;;;;4964039;28;20113;-72
2020/12/27 07:31:39;;;;;;;21.40;5.63;;;4.60;99.90;;;;;;4961318;28;20152;-72
2020/12/27 07:34:06;;;;;;;9.43;4.55;;;4.60;99.90;;;;;;4967733;28;20172;-71
2020/12/27 07:36:36;;;;;;;14.60;4.53;;;4.50;99.90;;;;;;4962699;28;20403;-71
2020/12/27 07:39:10;;;;;;;13.30;4.88;;;4.50;99.90;;;;;;4968674;28;20046;-72
2020/12/27 07:41:40;;;;;;;17.27;5.55;;;4.40;99.90;;;;;;4965437;28;20405;-71
2020/12/27 07:44:17;;;;;;;12.70;3.95;;;4.30;99.90;;;;;;4957722;28;20051;-71
2020/12/27 07:46:43;;;;;;;10.73;3.75;;;4.30;99.90;;;;;;4965397;28;20168;-71
2020/12/27 07:49:10;;;;;;;12.80;4.07;;;4.20;99.90;;;;;;4963942;28;20041;-72
2020/12/27 07:51:37;;;;;;;15.00;4.88;;;4.20;99.90;;;;;;4964637;28;20469;-71
2020/12/27 07:54:03;;;;;;;11.52;4.15;;;4.10;99.90;;;;;;4962768;28;20124;-71
2020/12/27 07:56:30;;;;;;;11.40;3.90;;;4.10;99.90;;;;;;4966195;28;20048;-72
2020/12/27 07:58:58;;;;;;;8.73;3.50;;;4.10;99.90;;;;;;4964475;28;20031;-71
2020/12/27 08:01:41;;;;;;;11.85;3.55;;;4.00;99.90;;;;;;4964478;28;20427;-72
2020/12/27 08:04:08;;;;;;;9.38;3.47;;;4.00;99.90;;;;;;4962696;28;20053;-72
2020/12/27 08:06:35;;;;;;;10.32;3.47;;;4.00;99.90;;;;;;4962590;28;20043;-72
2020/12/27 08:09:08;;;;;;;13.70;3.78;;;4.00;99.90;;;;;;4964798;28;20345;-72
2020/12/27 08:11:36;;;;;;;13.52;3.20;;;3.90;99.90;;;;;;4960455;28;20046;-72
2020/12/27 08:14:07;;;;;;;11.38;2.35;;;3.90;99.90;;;;;;4958714;28;20061;-72
2020/12/27 08:16:36;;;;;;;8.23;2.90;;;3.90;99.90;;;;;;4962466;28;20114;-72
2020/12/27 08:19:12;;;;;;;14.50;2.75;;;3.90;99.90;;;;;;4964571;28;20437;-72
2020/12/27 08:21:42;;;;;;;12.55;3.63;;;3.90;99.90;;;;;;4955187;28;20031;-72
2020/12/27 08:24:16;;;;;;;6.10;2.58;;;3.90;99.90;;;;;;4963133;28;20129;-72
2020/12/27 08:26:44;;;;;;;7.78;2.40;;;3.90;99.90;;;;;;4960669;28;20058;-71
2020/12/27 08:29:18;;;;;;;10.65;3.00;;;3.90;99.90;;;;;;4960781;28;20030;-72
2020/12/27 08:31:50;;;;;;;9.50;3.03;;;3.90;99.90;;;;;;4954765;28;20030;-72
2020/12/27 08:34:24;;;;;;;10.07;2.83;;;3.90;99.90;;;;;;4959114;28;20030;-72
2020/12/27 08:36:54;;;;;;;9.50;2.60;;;3.90;99.90;;;;;;4962920;28;20104;-72
2020/12/27 08:39:38;;;;;;;8.65;2.92;;;3.90;99.90;;;;;;4958760;28;20074;-73
2020/12/27 08:42:05;;;;;;;10.05;2.70;;;3.90;99.90;;;;;;4961269;28;20039;-72
2020/12/27 08:44:49;;;;;;;7.40;2.60;;;3.90;99.90;;;;;;4959771;28;20027;-71
2020/12/27 08:47:20;;;;;;;18.77;3.35;;;3.90;99.90;;;;;;4959971;28;20384;-72
2020/12/27 08:49:58;;;;;;;9.10;2.85;;;3.90;99.90;;;;;;4960497;28;20027;-72
2020/12/27 08:52:24;;;;;;;12.18;2.75;;;4.00;99.90;;;;;;4961603;28;20517;-72
2020/12/27 08:54:59;;;;;;;13.30;3.15;;;3.90;99.90;;;;;;4961358;28;21106;-72
2020/12/27 08:57:26;;;;;;;8.75;2.63;;;4.00;99.90;;;;;;4963065;28;20031;-72
2020/12/27 09:00:07;;;;;;;8.55;3.38;;;4.00;99.90;;;;;;4991077;28;20030;-73
2020/12/27 09:02:34;;;;;;;7.63;2.80;;;4.00;99.90;;;;;;4957820;28;20117;-72
2020/12/27 09:05:06;;;;;;;6.45;2.80;;;4.00;99.90;;;;;;4965076;28;20027;-72
2020/12/27 09:07:33;;;;;;;6.70;2.42;;;4.00;99.90;;;;;;4966590;28;20093;-73
2020/12/27 09:10:09;;;;;;;10.27;3.22;;;4.00;99.90;;;;;;4965500;28;20038;-72
2020/12/27 09:12:36;;;;;;;9.93;3.00;;;4.00;99.90;;;;;;4964639;28;20441;-73
2020/12/27 09:15:35;;;;;;;10.23;2.20;;;4.00;99.90;;;;;;4958214;28;20526;-72
2020/12/27 09:18:06;;;;;;;8.88;2.65;;;4.00;99.90;;;;;;4965803;28;20026;-72
2020/12/27 09:20:34;;;;;;;8.13;2.90;;;4.10;99.90;;;;;;4958610;28;20042;-71
2020/12/27 09:23:00;;;;;;;9.45;2.35;;;4.00;99.90;;;;;;4957318;28;20041;-71
2020/12/27 09:25:27;;;;;;;16.42;3.47;;;4.10;99.90;;;;;;4959327;28;20043;-71
2020/12/27 09:27:54;;;;;;;9.07;3.25;;;4.10;99.90;;;;;;4952521;28;21256;-71
2020/12/27 09:30:26;;;;;;;11.90;2.95;;;4.10;99.90;;;;;;4969094;28;20030;-71
2020/12/27 09:33:01;;;;;;;14.82;3.45;;;4.10;99.90;;;;;;4963756;28;20132;-71
2020/12/27 09:35:28;;;;;;;13.27;3.15;;;4.10;99.90;;;;;;4965927;28;20652;-71
2020/12/27 09:37:54;;;;;;;12.45;2.88;;;4.10;99.90;;;;;;4968720;28;20058;-71
2020/12/27 09:40:21;;;;;;;12.82;3.10;;;4.00;99.90;;;;;;4971103;28;20126;-71
2020/12/27 09:42:48;;;;;;;4.45;1.98;;;4.10;99.90;;;;;;4968314;28;20037;-72
2020/12/27 09:45:18;;;;;;;7.93;2.00;;;4.10;99.90;;;;;;4966455;28;20034;-72
2020/12/27 09:48:00;;;;;;;8.10;1.98;;;4.10;99.90;;;;;;4968122;28;20031;-72
2020/12/27 09:50:34;;;;;;;6.35;2.40;;;4.00;99.90;;;;;;4968160;28;20022;-72
2020/12/27 09:53:01;;;;;;;11.88;1.88;;;4.00;99.90;;;;;;4969998;28;20034;-71
2020/12/27 09:55:27;;;;;;;6.85;2.53;;;4.00;99.90;;;;;;4952642;28;20383;-71
2020/12/27 09:57:54;;;;;;;12.30;2.85;;;4.00;99.90;;;;;;4968746;28;20038;-72
2020/12/27 10:00:19;;;;;;;6.57;2.28;;;4.00;99.90;;;;;;4970428;28;20034;-72
2020/12/27 10:02:45;;;;;;;12.35;2.65;;;4.00;99.90;;;;;;4968341;28;20027;-72
2020/12/27 10:05:11;;;;;;;15.68;2.67;;;4.10;99.90;;;;;;4964085;28;20034;-72
2020/12/27 10:07:38;;;;;;;8.10;2.60;;;4.00;99.90;;;;;;4969143;28;20145;-72
2020/12/27 10:10:06;;;;;;;14.52;2.40;;;4.10;99.90;;;;;;4968609;28;20038;-71
2020/12/27 10:12:32;;;;;;;8.48;2.17;;;4.00;99.90;;;;;;4969431;28;20045;-72
2020/12/27 10:14:58;;;;;;;8.77;3.30;;;4.10;99.90;;;;;;4967034;28;20553;-71
2020/12/27 10:17:24;;;;;;;14.93;4.00;;;4.00;99.90;;;;;;4969703;28;20150;-72
2020/12/27 10:19:50;;;;;;;17.00;2.35;;;4.10;99.90;;;;;;4967828;28;20121;-71
2020/12/27 10:22:16;;;;;;;11.48;2.25;;;4.00;99.90;;;;;;4965444;28;20520;-72
2020/12/27 10:24:42;;;;;;;5.80;1.58;;;4.00;99.90;;;;;;4969584;28;20027;-72
2020/12/27 10:27:08;;;;;;;8.30;2.03;;;4.10;99.90;;;;;;4968198;28;20049;-72
2020/12/27 10:29:35;;;;;;;7.00;1.92;;;4.10;99.90;;;;;;4972432;28;20030;-72
2020/12/27 10:32:03;;;;;;;7.82;2.00;;;4.00;99.90;;;;;;4967932;28;20069;-72
2020/12/27 10:34:29;;;;;;;8.63;3.80;;;4.00;99.90;;;;;;4970178;28;20027;-72
2020/12/27 10:36:58;;;;;;;11.13;2.50;;;4.00;99.90;;;;;;4970260;28;20054;-72
2020/12/27 10:39:24;;;;;;;7.20;2.08;;;4.00;99.90;;;;;;4967207;28;20590;-72
2020/12/27 10:41:51;;;;;;;13.07;2.65;;;4.00;99.90;;;;;;4968097;28;20042;-72
2020/12/27 10:44:18;;;;;;;7.70;2.47;;;4.00;99.90;;;;;;4968301;28;20141;-72
2020/12/27 10:46:44;;;;;;;8.45;2.15;;;4.00;99.90;;;;;;4968149;28;20041;-72
2020/12/27 10:49:11;;;;;;;10.63;2.83;;;3.90;99.90;;;;;;4965349;28;20030;-72
2020/12/27 10:51:38;;;;;;;11.38;2.13;;;3.90;99.90;;;;;;4968973;28;20061;-72
2020/12/27 10:54:05;;;;;;;6.68;2.00;;;3.90;99.90;;;;;;4962967;28;20058;-72
2020/12/27 10:56:32;;;;;;;3.88;1.85;;;3.90;99.90;;;;;;4965826;28;20050;-72
2020/12/27 10:58:58;;;;;;;4.13;2.00;;;3.90;99.90;;;;;;4964898;28;20023;-72
2020/12/27 11:01:24;;;;;;;5.88;2.00;;;3.90;99.90;;;;;;4968080;28;20026;-72
2020/12/27 11:03:50;;;;;;;4.25;1.65;;;3.80;99.90;;;;;;4964539;28;20418;-72
2020/12/27 11:06:16;;;;;;;7.30;3.28;;;3.80;99.90;;;;;;4963489;28;20506;-72
2020/12/27 11:08:42;;;;;;;5.35;1.80;;;3.80;99.90;;;;;;4966867;28;20034;-72
2020/12/27 11:11:07;;;;;;;5.30;1.85;;;3.70;99.90;;;;;;4967405;28;20317;-72
2020/12/27 11:13:33;;;;;;;7.20;2.72;;;3.70;99.90;;;;;;4963475;28;20089;-71
2020/12/27 11:15:59;;;;;;;10.13;3.28;;;3.80;99.90;;;;;;4959693;28;20314;-72
2020/12/27 11:18:25;;;;;;;8.13;2.22;;;3.70;99.90;;;;;;4966654;28;20030;-72
2020/12/27 11:20:50;;;;;;;8.48;2.25;;;3.70;99.90;;;;;;4962917;28;20053;-71
2020/12/27 11:23:16;;;;;;;7.95;2.20;;;3.70;99.90;;;;;;4961448;28;20042;-72
2020/12/27 11:25:42;;;;;;;5.22;1.77;;;3.70;99.90;;;;;;4964971;28;20549;-71
2020/12/27 11:28:08;;;;;;;6.68;1.90;;;3.70;99.90;;;;;;4964474;28;20034;-72
2020/12/27 11:30:34;;;;;;;7.57;1.63;;;3.70;99.90;;;;;;4966197;28;20046;-71
2020/12/27 11:32:59;;;;;;;10.85;1.83;;;3.70;99.90;;;;;;4964421;28;20062;-71
2020/12/27 11:35:25;;;;;;;3.83;1.23;;;3.70;99.90;;;;;;4966777;28;20030;-71
2020/12/27 11:37:52;;;;;;;4.80;2.10;;;3.70;99.90;;;;;;4960670;28;20420;-72
2020/12/27 11:40:18;;;;;;;4.28;1.92;;;3.70;99.90;;;;;;4967762;28;20414;-71
2020/12/27 11:42:43;;;;;;;5.95;1.40;;;3.60;99.90;;;;;;4965062;28;20041;-71
2020/12/27 11:45:09;;;;;;;4.43;1.42;;;3.70;99.90;;;;;;4964242;28;20181;-72
2020/12/27 11:47:38;;;;;;;8.32;2.00;;;3.70;99.90;;;;;;4964629;28;20037;-71
2020/12/27 11:50:05;;;;;;;4.90;1.50;;;3.70;99.90;;;;;;4965314;28;20371;-71
2020/12/27 11:52:31;;;;;;;2.78;1.77;;;3.70;99.90;;;;;;4965035;28;20035;-72
2020/12/27 11:54:57;;;;;;;7.38;1.90;;;3.70;99.90;;;;;;4964239;28;20050;-71
2020/12/27 11:57:22;;;;;;;2.63;1.00;;;3.70;99.90;;;;;;4964548;28;20403;-71
2020/12/27 11:59:48;;;;;;;5.95;1.77;;;3.70;99.90;;;;;;4995287;28;20030;-71
2020/12/27 12:02:14;;;;;;;3.63;1.88;;;3.80;99.90;;;;;;4965083;28;20456;-72
2020/12/27 12:04:40;;;;;;;5.15;1.38;;;3.80;99.90;;;;;;4963560;28;20540;-71
2020/12/27 12:07:06;;;;;;;3.88;1.42;;;3.80;99.90;;;;;;4958677;28;20207;-72
2020/12/27 12:09:32;;;;;;;5.30;1.50;;;3.80;99.90;;;;;;4961141;28;20031;-71
2020/12/27 12:11:57;;;;;;;3.92;1.42;;;3.80;99.90;;;;;;4963373;28;20030;-72
2020/12/27 12:14:23;;;;;;;4.95;1.17;;;3.80;99.90;;;;;;4962890;28;20041;-72
2020/12/27 12:16:49;;;;;;;2.53;1.20;;;3.80;99.90;;;;;;4965936;28;20031;-71
2020/12/27 12:19:15;;;;;;;5.30;1.45;;;3.80;99.90;;;;;;4967464;28;20053;-71
2020/12/27 12:21:41;;;;;;;7.90;2.60;;;3.70;99.90;;;;;;4967106;28;20113;-71
2020/12/27 12:24:06;;;;;;;4.47;1.45;;;3.70;99.90;;;;;;4960523;28;20110;-71
2020/12/27 12:26:32;;;;;;;3.15;1.20;;;3.70;99.90;;;;;;4964414;28;20800;-71
2020/12/27 12:28:59;;;;;;;2.33;1.15;;;3.70;99.90;;;;;;4962477;28;20070;-71
2020/12/27 12:31:27;;;;;;;7.30;2.00;;;3.70;99.90;;;;;;4965036;28;20026;-72
2020/12/27 12:33:53;;;;;;;8.88;1.45;;;3.70;99.90;;;;;;4964916;28;20031;-72
2020/12/27 12:36:21;;;;;;;4.13;1.30;;;3.70;99.90;;;;;;4966076;28;20049;-71
2020/12/27 12:38:48;;;;;;;3.40;1.00;;;3.70;99.90;;;;;;4963173;28;20236;-71
2020/12/27 12:41:17;;;;;;;4.63;1.30;;;3.80;99.90;;;;;;4967289;28;20333;-72
2020/12/27 12:43:45;;;;;;;4.10;1.30;;;3.80;99.90;;;;;;4959246;28;20037;-71
2020/12/27 12:46:12;;;;;;;7.65;1.30;;;3.80;99.90;;;;;;4961599;28;20182;-71
2020/12/27 12:48:39;;;;;;;17.60;3.33;;;3.90;99.90;;;;;;4963058;28;20031;-71
2020/12/27 12:51:05;;;;;;;1.17;0.90;;;3.90;99.90;;;;;;4967349;28;20041;-71